createdAt,value
2018-05-07T00:00:36.575Z,90.56
2018-05-07T00:01:36.572Z,89.99
2018-05-07T00:02:36.569Z,90.37
2018-05-07T00:03:36.575Z,90.37
2018-05-07T00:04:36.566Z,89.99
2018-05-07T00:05:36.567Z,90.66
2018-05-07T00:06:36.588Z,91.13
2018-05-07T00:07:36.603Z,91.13
2018-05-07T00:08:36.560Z,91.42
2018-05-07T00:09:36.589Z,91.51
2018-05-07T00:10:36.593Z,92.08
2018-05-07T00:11:36.611Z,91.99
2018-05-07T00:12:36.565Z,92.27
2018-05-07T00:13:36.552Z,91.89
2018-05-07T00:14:36.551Z,92.27
2018-05-07T00:15:36.581Z,91.89
2018-05-07T00:16:36.543Z,91.80
2018-05-07T00:17:36.544Z,92.08
2018-05-07T00:18:36.540Z,92.18
2018-05-07T00:19:36.543Z,91.22
2018-05-07T00:20:36.546Z,91.42
2018-05-07T00:21:36.537Z,91.70
2018-05-07T00:22:36.571Z,91.22
2018-05-07T00:23:36.532Z,91.75
2018-05-07T00:24:36.531Z,92.03
2018-05-07T00:25:36.534Z,92.41
2018-05-07T00:26:36.554Z,92.89
2018-05-07T00:27:36.522Z,93.75
2018-05-07T00:28:36.620Z,93.94
2018-05-07T00:29:36.521Z,93.55
2018-05-07T00:30:36.519Z,93.94
2018-05-07T00:31:36.528Z,93.84
2018-05-07T00:32:36.515Z,93.18
2018-05-07T00:33:36.515Z,94.03
2018-05-07T00:34:36.511Z,94.13
2018-05-07T00:35:36.517Z,94.22
2018-05-07T00:36:36.509Z,94.32
2018-05-07T00:37:36.507Z,94.60
2018-05-07T00:38:36.504Z,94.32
2018-05-07T00:39:36.501Z,94.51
2018-05-07T00:40:36.499Z,94.60
2018-05-07T00:41:36.499Z,94.32
2018-05-07T00:42:36.495Z,93.75
2018-05-07T00:43:36.493Z,93.75
2018-05-07T00:44:36.497Z,93.65
2018-05-07T00:45:36.493Z,93.46
2018-05-07T00:46:36.499Z,93.37
2018-05-07T00:47:36.486Z,94.13
2018-05-07T00:48:36.484Z,93.94
2018-05-07T00:49:36.486Z,94.60
2018-05-07T00:50:36.483Z,94.70
2018-05-07T00:51:36.480Z,94.32
2018-05-07T00:52:36.478Z,94.51
2018-05-07T00:53:36.479Z,94.51
2018-05-07T00:54:36.472Z,94.42
2018-05-07T00:55:36.469Z,94.32
2018-05-07T00:56:36.468Z,94.51
2018-05-07T00:57:36.466Z,94.70
2018-05-07T00:58:36.464Z,94.70
2018-05-07T00:59:36.461Z,94.70
2018-05-07T01:00:36.459Z,95.17
2018-05-07T01:01:36.455Z,95.17
2018-05-07T01:02:36.454Z,95.65
2018-05-07T01:03:36.452Z,95.27
2018-05-07T01:04:36.450Z,94.89
2018-05-07T01:05:36.452Z,94.51
2018-05-07T01:06:36.449Z,94.89
2018-05-07T01:07:36.443Z,95.17
2018-05-07T01:08:36.440Z,95.27
2018-05-07T01:09:36.440Z,95.46
2018-05-07T01:10:36.438Z,95.89
2018-05-07T01:11:36.435Z,95.22
2018-05-07T01:12:36.432Z,95.60
2018-05-07T01:13:36.433Z,95.51
2018-05-07T01:14:36.428Z,95.98
2018-05-07T01:15:36.426Z,95.60
2018-05-07T01:16:36.424Z,95.51
2018-05-07T01:17:36.421Z,95.56
2018-05-07T01:18:36.419Z,95.60
2018-05-07T01:19:36.417Z,95.41
2018-05-07T01:20:36.415Z,95.84
2018-05-07T01:21:36.414Z,95.65
2018-05-07T01:22:36.410Z,96.03
2018-05-07T01:23:36.408Z,95.17
2018-05-07T01:24:36.406Z,95.56
2018-05-07T01:25:36.403Z,95.36
2018-05-07T01:26:36.404Z,95.56
2018-05-07T01:27:36.399Z,95.94
2018-05-07T01:28:36.398Z,95.75
2018-05-07T01:29:36.397Z,95.56
2018-05-07T01:30:36.392Z,96.31
2018-05-07T01:31:36.390Z,96.41
2018-05-07T01:32:36.387Z,95.46
2018-05-07T01:33:36.386Z,95.84
2018-05-07T01:34:36.384Z,95.56
2018-05-07T01:35:36.379Z,95.79
2018-05-07T01:36:36.385Z,96.36
2018-05-07T01:37:36.380Z,96.55
2018-05-07T01:38:36.375Z,95.75
2018-05-07T01:39:36.372Z,95.84
2018-05-07T01:40:36.370Z,95.89
2018-05-07T01:41:36.368Z,96.45
2018-05-07T01:42:36.364Z,96.60
2018-05-07T01:43:36.362Z,95.70
2018-05-07T01:44:36.363Z,95.98
2018-05-07T01:45:36.359Z,95.98
2018-05-07T01:46:36.351Z,96.17
2018-05-07T01:47:36.353Z,96.08
2018-05-07T01:48:36.352Z,95.98
2018-05-07T01:49:36.349Z,96.17
2018-05-07T01:50:36.345Z,96.26
2018-05-07T01:51:36.344Z,96.08
2018-05-07T01:52:36.342Z,95.89
2018-05-07T01:53:36.340Z,96.26
2018-05-07T01:54:36.338Z,96.55
2018-05-07T01:55:36.337Z,96.84
2018-05-07T01:56:36.331Z,96.74
2018-05-07T01:57:36.329Z,97.12
2018-05-07T01:58:36.325Z,97.41
2018-05-07T01:59:36.324Z,97.03
2018-05-07T02:00:36.322Z,97.03
2018-05-07T02:01:36.319Z,96.65
2018-05-07T02:02:36.316Z,97.22
2018-05-07T02:03:36.313Z,97.12
2018-05-07T02:04:36.312Z,97.22
2018-05-07T02:05:36.310Z,97.12
2018-05-07T02:06:36.306Z,97.12
2018-05-07T02:07:36.304Z,97.31
2018-05-07T02:08:36.302Z,97.31
2018-05-07T02:09:39.001Z,97.03
2018-05-07T02:10:36.334Z,97.03
2018-05-07T02:11:36.296Z,97.12
2018-05-07T02:12:36.293Z,97.03
2018-05-07T02:13:36.293Z,96.74
2018-05-07T02:14:36.286Z,96.84
2018-05-07T02:15:36.290Z,97.12
2018-05-07T02:16:36.283Z,97.41
2018-05-07T02:17:36.282Z,97.03
2018-05-07T02:18:36.277Z,96.93
2018-05-07T02:19:36.275Z,97.88
2018-05-07T02:20:36.274Z,96.74
2018-05-07T02:21:36.270Z,96.93
2018-05-07T02:22:36.267Z,97.88
2018-05-07T02:23:36.263Z,97.60
2018-05-07T02:24:36.263Z,97.69
2018-05-07T02:25:36.260Z,97.69
2018-05-07T02:26:36.255Z,97.50
2018-05-07T02:27:36.253Z,96.98
2018-05-07T02:28:36.252Z,96.88
2018-05-07T02:29:36.249Z,97.07
2018-05-07T02:30:36.246Z,97.74
2018-05-07T02:31:36.243Z,98.02
2018-05-07T02:32:36.300Z,97.92
2018-05-07T02:33:36.238Z,97.92
2018-05-07T02:34:36.235Z,98.31
2018-05-07T02:35:36.232Z,98.40
2018-05-07T02:36:36.230Z,98.12
2018-05-07T02:37:36.227Z,98.12
2018-05-07T02:38:36.223Z,98.21
2018-05-07T02:39:36.228Z,98.21
2018-05-07T02:40:36.219Z,98.02
2018-05-07T02:41:36.215Z,98.02
2018-05-07T02:42:36.211Z,98.50
2018-05-07T02:43:36.210Z,98.40
2018-05-07T02:44:36.207Z,99.07
2018-05-07T02:45:36.204Z,99.16
2018-05-07T02:46:36.200Z,99.07
2018-05-07T02:47:36.202Z,99.07
2018-05-07T02:48:36.196Z,98.40
2018-05-07T02:49:36.945Z,98.69
2018-05-07T02:50:36.188Z,98.50
2018-05-07T02:51:36.188Z,98.02
2018-05-07T02:52:36.186Z,97.64
2018-05-07T02:53:36.180Z,97.55
2018-05-07T02:54:36.178Z,98.12
2018-05-07T02:55:36.176Z,98.50
2018-05-07T02:56:36.176Z,98.50
2018-05-07T02:57:36.172Z,99.16
2018-05-07T02:58:36.169Z,98.79
2018-05-07T02:59:36.166Z,98.97
2018-05-07T03:00:36.161Z,99.35
2018-05-07T03:01:36.160Z,99.26
2018-05-07T03:02:36.153Z,98.97
2018-05-07T03:03:36.153Z,99.64
2018-05-07T03:04:36.151Z,98.97
2018-05-07T03:05:36.147Z,99.44
2018-05-07T03:06:36.146Z,99.07
2018-05-07T03:07:36.948Z,99.16
2018-05-07T03:08:36.140Z,99.73
2018-05-07T03:09:36.137Z,99.44
2018-05-07T03:10:36.134Z,99.54
2018-05-07T03:11:36.129Z,99.44
2018-05-07T03:12:36.128Z,98.31
2018-05-07T03:13:36.124Z,98.50
2018-05-07T03:14:36.119Z,98.50
2018-05-07T03:15:36.117Z,98.50
2018-05-07T03:16:36.114Z,98.64
2018-05-07T03:17:36.114Z,99.44
2018-05-07T03:18:36.108Z,99.30
2018-05-07T03:19:36.105Z,99.40
2018-05-07T03:20:36.102Z,99.11
2018-05-07T03:21:36.100Z,99.30
2018-05-07T03:22:36.095Z,98.92
2018-05-07T03:23:36.094Z,99.11
2018-05-07T03:24:36.089Z,99.49
2018-05-07T03:25:36.099Z,99.58
2018-05-07T03:26:36.084Z,99.68
2018-05-07T03:27:36.086Z,99.99
2018-05-07T03:28:36.079Z,99.99
2018-05-07T03:29:36.075Z,99.99
2018-05-07T03:30:36.071Z,99.99
2018-05-07T03:31:36.070Z,99.99
2018-05-07T03:32:36.065Z,99.99
2018-05-07T03:33:36.064Z,99.92
2018-05-07T03:34:36.059Z,99.77
2018-05-07T03:35:36.056Z,99.40
2018-05-07T03:36:36.053Z,99.68
2018-05-07T03:37:36.056Z,99.99
2018-05-07T03:38:36.046Z,99.99
2018-05-07T03:39:36.049Z,99.99
2018-05-07T03:40:36.141Z,99.64
2018-05-07T03:41:36.038Z,99.49
2018-05-07T03:42:36.035Z,99.77
2018-05-07T03:43:36.032Z,99.77
2018-05-07T03:44:36.028Z,99.77
2018-05-07T03:45:36.025Z,99.40
2018-05-07T03:46:36.022Z,99.11
2018-05-07T03:47:36.019Z,99.77
2018-05-07T03:48:36.073Z,99.99
2018-05-07T03:49:36.013Z,99.99
2018-05-07T03:50:36.010Z,99.99
2018-05-07T03:51:36.011Z,99.99
2018-05-07T03:52:36.002Z,99.99
2018-05-07T03:53:36.004Z,99.99
2018-05-07T03:54:35.998Z,99.99
2018-05-07T03:55:35.994Z,99.99
2018-05-07T03:56:35.991Z,99.99
2018-05-07T03:57:36.005Z,99.99
2018-05-07T03:58:35.984Z,99.99
2018-05-07T03:59:35.988Z,99.99
2018-05-07T04:00:35.979Z,99.99
2018-05-07T04:01:35.978Z,99.99
2018-05-07T04:02:35.969Z,99.99
2018-05-07T04:03:35.969Z,99.99
2018-05-07T04:04:35.966Z,99.99
2018-05-07T04:05:36.450Z,99.99
2018-05-07T04:06:36.450Z,99.99
2018-05-07T04:07:35.956Z,99.99
2018-05-07T04:08:35.952Z,99.99
2018-05-07T04:09:35.951Z,99.99
2018-05-07T04:10:35.945Z,99.99
2018-05-07T04:11:35.944Z,99.99
2018-05-07T04:12:35.941Z,99.99
2018-05-07T04:13:35.940Z,99.99
2018-05-07T04:14:35.933Z,99.99
2018-05-07T04:15:35.930Z,99.99
2018-05-07T04:16:35.926Z,99.99
2018-05-07T04:17:35.925Z,99.99
2018-05-07T04:18:35.920Z,99.99
2018-05-07T04:19:35.919Z,99.99
2018-05-07T04:20:35.916Z,99.99
2018-05-07T04:21:35.911Z,99.99
2018-05-07T04:22:35.907Z,99.99
2018-05-07T04:23:35.995Z,99.99
2018-05-07T04:24:35.904Z,99.99
2018-05-07T04:25:35.899Z,99.99
2018-05-07T04:26:35.895Z,99.99
2018-05-07T04:27:35.899Z,99.99
2018-05-07T04:28:35.954Z,99.99
2018-05-07T04:29:35.899Z,99.99
2018-05-07T04:30:35.920Z,99.99
2018-05-07T04:31:35.884Z,99.99
2018-05-07T04:32:36.510Z,99.99
2018-05-07T04:33:35.922Z,99.99
2018-05-07T04:34:35.872Z,99.99
2018-05-07T04:35:35.954Z,99.99
2018-05-07T04:36:35.891Z,99.99
2018-05-07T04:37:35.861Z,99.99
2018-05-07T04:38:35.857Z,99.99
2018-05-07T04:39:35.857Z,99.99
2018-05-07T04:40:35.853Z,99.99
2018-05-07T04:41:35.851Z,99.99
2018-05-07T04:42:35.845Z,99.99
2018-05-07T04:43:35.863Z,99.99
2018-05-07T04:44:35.839Z,99.99
2018-05-07T04:45:35.840Z,99.99
2018-05-07T04:46:35.850Z,99.99
2018-05-07T04:47:35.832Z,99.99
2018-05-07T04:48:35.924Z,99.99
2018-05-07T04:49:35.826Z,99.99
2018-05-07T04:50:35.821Z,99.99
2018-05-07T04:51:35.818Z,99.99
2018-05-07T04:52:35.819Z,99.99
2018-05-07T04:53:35.813Z,99.99
2018-05-07T04:54:35.809Z,99.99
2018-05-07T04:55:35.809Z,99.99
2018-05-07T04:56:35.805Z,99.99
2018-05-07T04:57:35.823Z,99.99
2018-05-07T04:58:35.808Z,99.99
2018-05-07T04:59:35.823Z,99.99
2018-05-07T05:00:35.818Z,99.99
2018-05-07T05:01:35.794Z,99.99
2018-05-07T05:02:35.789Z,99.99
2018-05-07T05:03:35.785Z,99.99
2018-05-07T05:04:35.783Z,99.99
2018-05-07T05:05:35.781Z,99.99
2018-05-07T05:06:35.778Z,99.99
2018-05-07T05:07:35.775Z,99.99
2018-05-07T05:08:35.774Z,99.99
2018-05-07T05:09:35.770Z,99.99
2018-05-07T05:10:35.770Z,99.99
2018-05-07T05:11:35.764Z,99.99
2018-05-07T05:12:35.763Z,99.99
2018-05-07T05:13:35.761Z,99.99
2018-05-07T05:14:35.757Z,99.99
2018-05-07T05:15:35.756Z,99.99
2018-05-07T05:16:36.461Z,99.99
2018-05-07T05:17:35.751Z,99.99
2018-05-07T05:18:35.748Z,99.99
2018-05-07T05:19:35.751Z,99.99
2018-05-07T05:20:35.743Z,99.99
2018-05-07T05:21:35.745Z,99.99
2018-05-07T05:22:35.739Z,99.99
2018-05-07T05:23:35.736Z,99.99
2018-05-07T05:24:35.735Z,99.99
2018-05-07T05:25:35.732Z,99.99
2018-05-07T05:26:35.732Z,99.99
2018-05-07T05:27:35.728Z,99.99
2018-05-07T05:28:35.727Z,99.99
2018-05-07T05:29:35.724Z,99.99
2018-05-07T05:30:35.725Z,99.99
2018-05-07T05:31:36.457Z,99.99
2018-05-07T05:32:35.720Z,99.99
2018-05-07T05:33:35.717Z,99.99
2018-05-07T05:34:35.714Z,99.99
2018-05-07T05:35:35.712Z,99.99
2018-05-07T05:36:35.714Z,99.99
2018-05-07T05:37:35.709Z,99.99
2018-05-07T05:38:35.706Z,99.99
2018-05-07T05:39:35.706Z,99.99
2018-05-07T05:40:35.703Z,99.99
2018-05-07T05:41:35.701Z,99.99
2018-05-07T05:42:35.703Z,99.99
2018-05-07T05:43:35.765Z,99.99
2018-05-07T05:44:35.698Z,99.99
2018-05-07T05:45:35.695Z,99.99
2018-05-07T05:46:35.693Z,99.99
2018-05-07T05:47:35.692Z,99.94
2018-05-07T05:48:35.692Z,99.37
2018-05-07T05:49:35.689Z,99.37
2018-05-07T05:50:35.688Z,98.70
2018-05-07T05:51:35.683Z,98.13
2018-05-07T05:52:35.711Z,98.22
2018-05-07T05:53:35.684Z,97.99
2018-05-07T05:54:35.682Z,96.08
2018-05-07T05:55:35.681Z,94.70
2018-05-07T05:56:35.680Z,92.55
2018-05-07T05:57:35.679Z,89.35
2018-05-07T05:58:35.678Z,86.53
2018-05-07T05:59:35.676Z,83.46
2018-05-07T06:00:35.677Z,80.54
2018-05-07T06:01:35.675Z,76.31
2018-05-07T06:02:35.675Z,71.98
2018-05-07T06:03:35.735Z,68.98
2018-05-07T06:04:35.673Z,65.91
2018-05-07T06:05:35.676Z,63.86
2018-05-07T06:06:35.673Z,61.87
2018-05-07T06:07:35.675Z,60.94
2018-05-07T06:08:36.462Z,60.46
2018-05-07T06:09:35.675Z,58.54
2018-05-07T06:10:35.674Z,57.51
2018-05-07T06:11:35.677Z,56.87
2018-05-07T06:12:35.681Z,56.96
2018-05-07T06:13:35.681Z,55.78
2018-05-07T06:14:35.708Z,54.75
2018-05-07T06:15:35.684Z,54.78
2018-05-07T06:16:35.689Z,53.72
2018-05-07T06:17:35.692Z,53.98
2018-05-07T06:18:35.693Z,54.27
2018-05-07T06:19:35.695Z,54.68
2018-05-07T06:20:35.699Z,54.30
2018-05-07T06:21:35.701Z,53.69
2018-05-07T06:22:35.709Z,53.02
2018-05-07T06:23:35.707Z,53.05
2018-05-07T06:24:35.713Z,53.45
2018-05-07T06:25:35.721Z,52.59
2018-05-07T06:26:35.722Z,51.62
2018-05-07T06:27:35.726Z,51.07
2018-05-07T06:28:35.736Z,51.46
2018-05-07T06:29:36.468Z,51.17
2018-05-07T06:30:35.739Z,50.98
2018-05-07T06:31:35.743Z,51.46
2018-05-07T06:32:35.750Z,51.84
2018-05-07T06:33:35.755Z,50.69
2018-05-07T06:34:35.759Z,51.17
2018-05-07T06:35:35.764Z,50.49
2018-05-07T06:36:35.770Z,50.57
2018-05-07T06:37:35.776Z,50.23
2018-05-07T06:38:35.781Z,51.48
2018-05-07T06:39:35.785Z,51.02
2018-05-07T06:40:35.792Z,50.37
2018-05-07T06:41:35.798Z,49.53
2018-05-07T06:42:35.803Z,48.79
2018-05-07T06:43:35.810Z,48.40
2018-05-07T06:44:35.815Z,49.02
2018-05-07T06:45:35.878Z,49.05
2018-05-07T06:46:35.828Z,48.86
2018-05-07T06:47:35.835Z,48.01
2018-05-07T06:48:35.839Z,48.49
2018-05-07T06:49:35.844Z,47.27
2018-05-07T06:50:35.850Z,47.45
2018-05-07T06:51:35.860Z,47.17
2018-05-07T06:52:35.900Z,47.85
2018-05-07T06:53:35.871Z,47.17
2018-05-07T06:54:35.877Z,46.69
2018-05-07T06:55:35.882Z,47.17
2018-05-07T06:56:35.891Z,47.17
2018-05-07T06:57:35.897Z,46.49
2018-05-07T06:58:35.901Z,46.49
2018-05-07T06:59:35.909Z,46.03
2018-05-07T07:00:35.915Z,45.57
2018-05-07T07:01:35.923Z,45.18
2018-05-07T07:02:35.942Z,45.67
2018-05-07T07:03:35.934Z,45.21
2018-05-07T07:04:35.948Z,43.78
2018-05-07T07:05:35.949Z,44.09
2018-05-07T07:06:35.955Z,43.49
2018-05-07T07:07:35.962Z,42.93
2018-05-07T07:08:36.077Z,43.99
2018-05-07T07:09:35.977Z,43.20
2018-05-07T07:10:35.982Z,43.66
2018-05-07T07:11:35.991Z,45.31
2018-05-07T07:12:36.004Z,44.53
2018-05-07T07:13:36.008Z,44.24
2018-05-07T07:14:36.016Z,44.07
2018-05-07T07:15:36.021Z,44.75
2018-05-07T07:16:36.030Z,43.88
2018-05-07T07:17:36.038Z,44.05
2018-05-07T07:18:36.045Z,44.51
2018-05-07T07:19:36.053Z,46.35
2018-05-07T07:20:36.059Z,47.34
2018-05-07T07:21:36.079Z,47.45
2018-05-07T07:22:36.076Z,46.97
2018-05-07T07:23:36.084Z,46.71
2018-05-07T07:24:36.090Z,45.94
2018-05-07T07:25:36.101Z,45.55
2018-05-07T07:26:36.110Z,44.80
2018-05-07T07:27:36.117Z,45.01
2018-05-07T07:28:36.124Z,45.01
2018-05-07T07:29:36.135Z,44.92
2018-05-07T07:30:36.140Z,44.22
2018-05-07T07:31:36.150Z,44.49
2018-05-07T07:32:36.158Z,44.51
2018-05-07T07:33:36.168Z,43.76
2018-05-07T07:34:36.174Z,43.47
2018-05-07T07:35:36.184Z,44.22
2018-05-07T07:36:36.193Z,45.01
2018-05-07T07:37:36.204Z,44.05
2018-05-07T07:38:36.209Z,43.85
2018-05-07T07:39:36.219Z,43.35
2018-05-07T07:40:36.228Z,43.57
2018-05-07T07:41:36.240Z,43.64
2018-05-07T07:42:36.247Z,43.45
2018-05-07T07:43:36.254Z,43.64
2018-05-07T07:44:36.263Z,43.35
2018-05-07T07:45:36.274Z,42.85
2018-05-07T07:46:36.281Z,43.89
2018-05-07T07:47:36.291Z,44.85
2018-05-07T07:48:36.301Z,45.34
2018-05-07T07:49:36.310Z,44.59
2018-05-07T07:50:36.320Z,44.68
2018-05-07T07:51:36.999Z,45.07
2018-05-07T07:52:36.339Z,44.90
2018-05-07T07:53:36.419Z,44.39
2018-05-07T07:54:36.361Z,44.95
2018-05-07T07:55:36.368Z,45.70
2018-05-07T07:56:36.377Z,45.92
2018-05-07T07:57:36.388Z,45.82
2018-05-07T07:58:36.398Z,45.53
2018-05-07T07:59:36.408Z,45.00
2018-05-07T08:00:36.418Z,45.29
2018-05-07T08:01:36.453Z,46.73
2018-05-07T08:02:36.435Z,47.75
2018-05-07T08:03:36.445Z,47.97
2018-05-07T08:04:36.457Z,47.87
2018-05-07T08:05:36.465Z,47.39
2018-05-07T08:06:36.475Z,47.58
2018-05-07T08:07:36.491Z,47.89
2018-05-07T08:08:36.495Z,47.34
2018-05-07T08:09:36.513Z,47.17
2018-05-07T08:10:36.515Z,46.11
2018-05-07T08:11:36.525Z,45.92
2018-05-07T08:12:36.535Z,45.92
2018-05-07T08:13:36.546Z,46.45
2018-05-07T08:14:36.555Z,47.41
2018-05-07T08:15:36.564Z,47.22
2018-05-07T08:16:36.575Z,47.67
2018-05-07T08:17:36.584Z,48.25
2018-05-07T08:18:36.594Z,48.43
2018-05-07T08:19:36.603Z,48.69
2018-05-07T08:20:36.613Z,50.10
2018-05-07T08:21:36.621Z,51.09
2018-05-07T08:22:36.638Z,49.65
2018-05-07T08:23:36.641Z,50.13
2018-05-07T08:24:36.651Z,50.13
2018-05-07T08:25:36.660Z,49.87
2018-05-07T08:26:36.665Z,49.29
2018-05-07T08:27:36.676Z,49.00
2018-05-07T08:28:36.688Z,48.71
2018-05-07T08:29:36.691Z,49.19
2018-05-07T08:30:36.709Z,50.06
2018-05-07T08:31:36.710Z,50.09
2018-05-07T08:32:36.714Z,48.64
2018-05-07T08:33:36.722Z,47.87
2018-05-07T08:34:36.734Z,47.58
2018-05-07T08:35:36.737Z,47.58
2018-05-07T08:36:36.766Z,47.65
2018-05-07T08:37:36.757Z,48.25
2018-05-07T08:38:36.758Z,48.97
2018-05-07T08:39:36.765Z,49.10
2018-05-07T08:40:36.774Z,49.32
2018-05-07T08:41:36.779Z,48.83
2018-05-07T08:42:36.787Z,47.31
2018-05-07T08:43:36.792Z,47.41
2018-05-07T08:44:36.800Z,46.25
2018-05-07T08:45:36.808Z,46.73
2018-05-07T08:46:36.814Z,46.25
2018-05-07T08:47:36.825Z,47.51
2018-05-07T08:48:36.827Z,47.24
2018-05-07T08:49:36.909Z,46.47
2018-05-07T08:50:36.845Z,45.87
2018-05-07T08:51:36.859Z,45.97
2018-05-07T08:52:36.858Z,46.04
2018-05-07T08:53:37.516Z,46.42
2018-05-07T08:54:36.866Z,46.21
2018-05-07T08:55:36.874Z,47.17
2018-05-07T08:56:36.882Z,46.71
2018-05-07T08:57:36.894Z,46.33
2018-05-07T08:58:36.893Z,45.58
2018-05-07T08:59:36.899Z,45.39
2018-05-07T09:00:36.930Z,45.39
2018-05-07T09:01:37.514Z,44.23
2018-05-07T09:02:36.920Z,44.13
2018-05-07T09:03:36.926Z,44.35
2018-05-07T09:04:36.932Z,44.64
2018-05-07T09:05:36.938Z,43.87
2018-05-07T09:06:36.945Z,43.67
2018-05-07T09:07:36.977Z,43.77
2018-05-07T09:08:36.961Z,43.29
2018-05-07T09:09:36.969Z,43.96
2018-05-07T09:10:36.973Z,43.55
2018-05-07T09:11:36.978Z,43.65
2018-05-07T09:12:36.985Z,44.15
2018-05-07T09:13:37.063Z,44.15
2018-05-07T09:14:37.060Z,44.35
2018-05-07T09:15:37.003Z,44.35
2018-05-07T09:16:37.011Z,44.90
2018-05-07T09:17:37.016Z,44.32
2018-05-07T09:18:37.022Z,45.03
2018-05-07T09:19:37.031Z,45.03
2018-05-07T09:20:37.042Z,45.03
2018-05-07T09:21:37.520Z,43.98
2018-05-07T09:22:37.048Z,43.50
2018-05-07T09:23:38.020Z,44.27
2018-05-07T09:24:37.060Z,44.29
2018-05-07T09:25:37.094Z,44.68
2018-05-07T09:26:37.079Z,44.20
2018-05-07T09:27:37.081Z,43.93
2018-05-07T09:28:37.088Z,43.64
2018-05-07T09:29:37.101Z,42.85
2018-05-07T09:30:38.022Z,43.70
2018-05-07T09:31:37.186Z,44.37
2018-05-07T09:32:37.115Z,44.56
2018-05-07T09:33:37.121Z,43.67
2018-05-07T09:34:37.142Z,43.98
2018-05-07T09:35:37.132Z,44.01
2018-05-07T09:36:37.147Z,44.20
2018-05-07T09:37:37.146Z,42.66
2018-05-07T09:38:37.151Z,42.08
2018-05-07T09:39:37.159Z,42.18
2018-05-07T09:40:37.166Z,42.94
2018-05-07T09:41:37.171Z,41.11
2018-05-07T09:42:37.178Z,41.69
2018-05-07T09:43:37.184Z,41.02
2018-05-07T09:44:37.192Z,41.69
2018-05-07T09:45:37.198Z,42.25
2018-05-07T09:46:37.203Z,42.54
2018-05-07T09:47:37.212Z,42.52
2018-05-07T09:48:37.219Z,42.61
2018-05-07T09:49:37.225Z,42.23
2018-05-07T09:50:38.030Z,41.28
2018-05-07T09:51:37.237Z,41.48
2018-05-07T09:52:37.266Z,41.20
2018-05-07T09:53:37.265Z,41.33
2018-05-07T09:54:37.257Z,40.36
2018-05-07T09:55:37.278Z,39.49
2018-05-07T09:56:37.270Z,39.28
2018-05-07T09:57:37.279Z,38.79
2018-05-07T09:58:37.282Z,39.39
2018-05-07T09:59:37.289Z,40.07
2018-05-07T10:00:37.299Z,38.91
2018-05-07T10:01:37.303Z,38.31
2018-05-07T10:02:37.310Z,39.18
2018-05-07T10:03:37.318Z,39.09
2018-05-07T10:04:37.322Z,39.47
2018-05-07T10:05:37.330Z,38.21
2018-05-07T10:06:37.336Z,37.54
2018-05-07T10:07:37.340Z,36.57
2018-05-07T10:08:37.348Z,35.90
2018-05-07T10:09:37.355Z,35.71
2018-05-07T10:10:37.363Z,35.44
2018-05-07T10:11:37.368Z,36.59
2018-05-07T10:12:37.375Z,36.69
2018-05-07T10:13:37.381Z,35.92
2018-05-07T10:14:37.391Z,36.69
2018-05-07T10:15:37.393Z,35.92
2018-05-07T10:16:37.400Z,36.50
2018-05-07T10:17:37.407Z,36.50
2018-05-07T10:18:37.414Z,37.37
2018-05-07T10:19:37.421Z,36.59
2018-05-07T10:20:37.452Z,36.59
2018-05-07T10:21:38.038Z,37.08
2018-05-07T10:22:37.444Z,37.37
2018-05-07T10:23:37.474Z,37.37
2018-05-07T10:24:37.458Z,36.88
2018-05-07T10:25:37.460Z,36.40
2018-05-07T10:26:37.466Z,36.21
2018-05-07T10:27:37.476Z,35.34
2018-05-07T10:28:37.478Z,34.86
2018-05-07T10:29:37.490Z,34.97
2018-05-07T10:30:37.526Z,34.66
2018-05-07T10:31:37.499Z,35.24
2018-05-07T10:32:37.506Z,35.26
2018-05-07T10:33:37.513Z,35.94
2018-05-07T10:34:37.556Z,34.38
2018-05-07T10:35:37.525Z,34.55
2018-05-07T10:36:37.532Z,36.09
2018-05-07T10:37:37.538Z,36.21
2018-05-07T10:38:37.564Z,36.29
2018-05-07T10:39:37.551Z,36.11
2018-05-07T10:40:37.558Z,36.11
2018-05-07T10:41:37.563Z,35.72
2018-05-07T10:42:37.572Z,35.63
2018-05-07T10:43:37.577Z,35.55
2018-05-07T10:44:37.583Z,34.79
2018-05-07T10:45:37.591Z,36.15
2018-05-07T10:46:37.597Z,34.60
2018-05-07T10:47:37.603Z,33.81
2018-05-07T10:48:37.614Z,34.31
2018-05-07T10:49:37.618Z,34.50
2018-05-07T10:50:37.621Z,34.56
2018-05-07T10:51:37.628Z,34.87
2018-05-07T10:52:37.657Z,34.97
2018-05-07T10:53:37.642Z,34.48
2018-05-07T10:54:37.657Z,33.44
2018-05-07T10:55:37.657Z,34.50
2018-05-07T10:56:37.663Z,34.42
2018-05-07T10:57:37.709Z,34.52
2018-05-07T10:58:37.677Z,35.00
2018-05-07T10:59:37.681Z,35.66
2018-05-07T11:00:37.688Z,36.82
2018-05-07T11:01:37.749Z,36.71
2018-05-07T11:02:37.703Z,38.16
2018-05-07T11:03:37.708Z,38.54
2018-05-07T11:04:37.714Z,38.76
2018-05-07T11:05:37.725Z,37.67
2018-05-07T11:06:37.732Z,38.56
2018-05-07T11:07:37.739Z,38.66
2018-05-07T11:08:37.742Z,38.66
2018-05-07T11:09:37.750Z,38.39
2018-05-07T11:10:37.754Z,36.94
2018-05-07T11:11:37.764Z,35.97
2018-05-07T11:12:37.769Z,37.02
2018-05-07T11:13:37.845Z,37.21
2018-05-07T11:14:37.783Z,37.04
2018-05-07T11:15:37.789Z,37.62
2018-05-07T11:16:37.798Z,37.44
2018-05-07T11:17:38.551Z,37.04
2018-05-07T11:18:37.811Z,36.65
2018-05-07T11:19:37.818Z,38.58
2018-05-07T11:20:37.824Z,38.89
2018-05-07T11:21:37.831Z,37.52
2018-05-07T11:22:37.839Z,38.10
2018-05-07T11:23:37.845Z,37.04
2018-05-07T11:24:37.852Z,37.71
2018-05-07T11:25:37.862Z,37.24
2018-05-07T11:26:37.864Z,37.34
2018-05-07T11:27:37.871Z,37.34
2018-05-07T11:28:37.880Z,37.44
2018-05-07T11:29:37.886Z,37.15
2018-05-07T11:30:37.892Z,38.10
2018-05-07T11:31:37.901Z,37.44
2018-05-07T11:32:38.557Z,37.44
2018-05-07T11:33:37.916Z,37.46
2018-05-07T11:34:37.921Z,36.98
2018-05-07T11:35:37.928Z,36.80
2018-05-07T11:36:37.936Z,37.19
2018-05-07T11:37:37.942Z,35.81
2018-05-07T11:38:37.947Z,35.89
2018-05-07T11:39:37.957Z,36.76
2018-05-07T11:40:37.962Z,37.26
2018-05-07T11:41:37.971Z,37.09
2018-05-07T11:42:37.976Z,36.68
2018-05-07T11:43:37.987Z,35.83
2018-05-07T11:44:37.995Z,36.60
2018-05-07T11:45:37.998Z,36.10
2018-05-07T11:46:38.008Z,36.60
2018-05-07T11:47:38.123Z,35.15
2018-05-07T11:48:38.021Z,34.36
2018-05-07T11:49:38.027Z,34.65
2018-05-07T11:50:38.033Z,35.33
2018-05-07T11:51:38.041Z,35.23
2018-05-07T11:52:38.049Z,34.96
2018-05-07T11:53:38.056Z,35.64
2018-05-07T11:54:38.064Z,35.44
2018-05-07T11:55:38.070Z,33.80
2018-05-07T11:56:38.084Z,34.39
2018-05-07T11:57:38.085Z,34.49
2018-05-07T11:58:38.092Z,34.47
2018-05-07T11:59:38.100Z,34.09
2018-05-07T12:00:38.106Z,33.51
2018-05-07T12:01:39.065Z,33.80
2018-05-07T12:02:38.188Z,34.19
2018-05-07T12:03:38.132Z,34.49
2018-05-07T12:04:38.138Z,34.77
2018-05-07T12:05:38.148Z,34.67
2018-05-07T12:06:38.150Z,34.67
2018-05-07T12:07:38.159Z,34.55
2018-05-07T12:08:38.166Z,34.28
2018-05-07T12:09:38.170Z,35.15
2018-05-07T12:10:38.180Z,35.73
2018-05-07T12:11:38.189Z,35.35
2018-05-07T12:12:38.198Z,34.86
2018-05-07T12:13:38.205Z,34.67
2018-05-07T12:14:38.208Z,35.54
2018-05-07T12:15:38.218Z,35.44
2018-05-07T12:16:38.225Z,34.96
2018-05-07T12:17:38.233Z,34.86
2018-05-07T12:18:38.239Z,35.15
2018-05-07T12:19:38.245Z,34.78
2018-05-07T12:20:38.254Z,35.64
2018-05-07T12:21:38.260Z,34.97
2018-05-07T12:22:38.267Z,34.49
2018-05-07T12:23:38.277Z,34.28
2018-05-07T12:24:38.285Z,34.77
2018-05-07T12:25:38.290Z,35.73
2018-05-07T12:26:38.297Z,36.22
2018-05-07T12:27:38.303Z,35.46
2018-05-07T12:28:38.313Z,34.30
2018-05-07T12:29:38.319Z,35.73
2018-05-07T12:30:38.325Z,34.96
2018-05-07T12:31:38.458Z,34.77
2018-05-07T12:32:38.345Z,35.93
2018-05-07T12:33:38.349Z,35.46
2018-05-07T12:34:38.356Z,35.66
2018-05-07T12:35:38.362Z,35.85
2018-05-07T12:36:38.370Z,35.56
2018-05-07T12:37:38.401Z,34.78
2018-05-07T12:38:38.389Z,35.07
2018-05-07T12:39:38.391Z,36.04
2018-05-07T12:40:38.400Z,35.07
2018-05-07T12:41:39.078Z,34.59
2018-05-07T12:42:39.077Z,34.59
2018-05-07T12:43:38.426Z,35.46
2018-05-07T12:44:38.441Z,35.56
2018-05-07T12:45:38.440Z,33.91
2018-05-07T12:46:38.521Z,34.51
2018-05-07T12:47:38.453Z,33.64
2018-05-07T12:48:38.467Z,32.86
2018-05-07T12:49:38.467Z,32.18
2018-05-07T12:50:38.475Z,33.54
2018-05-07T12:51:38.481Z,32.47
2018-05-07T12:52:38.535Z,32.94